Hanalei, Hawaii
Current Conditions -  °F | °C
As of 1:53 AM on Tuesday 21 Oct 2014 (Local Time) from PHLI Reporting Station
Clear Clear  
Wind Chill: 79°   Ceiling: Unl
Heat Index: 82°   Visibility: 10mi
Dew Point: 71°   Wind: 15mph
Humidity: 77%   Direction: 90°E
Pressure: 30"   Gusts: NA
Location:  22.2°N, 159.49°W
Report Text: PHLI 211153Z 09013KT 10SM CLR 26/22 A3000 RMK AO2 SLP155 T02610217 10267 20261 58008
Loading
Personal Weather Stations






























Interactive Weather Map New forecast layout! Learn more

10-Day Weather Forecast

Advertisements
Track Severe Weather on mobile